createdAt,value
2023-06-16T00:01:46.026Z,4.20
2023-06-16T00:04:12.530Z,4.20
2023-06-16T00:06:39.027Z,4.43
2023-06-16T00:09:05.534Z,5.07
2023-06-16T00:11:33.421Z,3.85
2023-06-16T00:13:59.897Z,4.32
2023-06-16T00:16:26.491Z,4.88
2023-06-16T00:18:54.460Z,4.97
2023-06-16T00:21:25.999Z,4.65
2023-06-16T00:23:52.608Z,4.70
2023-06-16T00:26:19.135Z,4.43
2023-06-16T00:28:47.081Z,5.32
2023-06-16T00:31:13.601Z,5.05
2023-06-16T00:33:40.153Z,4.80
2023-06-16T00:36:06.852Z,4.28
2023-06-16T00:38:33.387Z,4.80
2023-06-16T00:41:00.984Z,4.75
2023-06-16T00:43:27.563Z,4.40
2023-06-16T00:45:55.697Z,4.07
2023-06-16T00:48:22.227Z,4.07
2023-06-16T00:50:48.850Z,4.80
2023-06-16T00:53:16.670Z,4.20
2023-06-16T00:55:43.634Z,4.35
2023-06-16T00:58:10.235Z,3.90
2023-06-16T01:00:36.767Z,4.32
2023-06-16T01:03:04.873Z,4.70
2023-06-16T01:05:33.253Z,4.13
2023-06-16T01:08:05.844Z,4.25
2023-06-16T01:10:37.923Z,4.88
2023-06-16T01:13:11.413Z,4.70
2023-06-16T01:15:40.869Z,4.43
2023-06-16T01:18:10.123Z,4.72
2023-06-16T01:20:43.273Z,4.22
2023-06-16T01:23:21.577Z,4.57
2023-06-16T01:25:50.941Z,4.40
2023-06-16T01:28:19.094Z,4.78
2023-06-16T01:30:47.546Z,4.50
2023-06-16T01:33:15.278Z,4.50
2023-06-16T01:35:42.724Z,4.40
2023-06-16T01:40:36.846Z,4.80
2023-06-16T01:43:06.563Z,4.47
2023-06-16T01:45:34.153Z,4.75
2023-06-16T01:48:01.000Z,4.50
2023-06-16T01:50:27.659Z,4.72
2023-06-16T01:52:54.220Z,4.90
2023-06-16T01:55:20.719Z,4.40
2023-06-16T01:57:47.329Z,4.45
2023-06-16T02:00:22.921Z,4.43
2023-06-16T02:02:53.174Z,4.65
2023-06-16T02:05:23.277Z,4.18
2023-06-16T02:07:52.394Z,4.40
2023-06-16T02:10:21.141Z,5.28
2023-06-16T02:12:48.662Z,4.38
2023-06-16T02:15:18.354Z,5.00
2023-06-16T02:17:45.077Z,4.30
2023-06-16T02:20:12.396Z,5.07
2023-06-16T02:22:39.238Z,4.88
2023-06-16T02:25:06.675Z,5.07
2023-06-16T02:27:33.222Z,5.30
2023-06-16T02:29:59.704Z,5.18
2023-06-16T02:32:27.692Z,5.22
2023-06-16T02:34:54.246Z,6.15
2023-06-16T02:37:21.660Z,5.55
2023-06-16T02:39:48.157Z,5.70
2023-06-16T02:42:14.679Z,5.60
2023-06-16T02:44:41.185Z,5.25
2023-06-16T02:47:07.740Z,5.88
2023-06-16T02:49:35.857Z,5.43
2023-06-16T02:52:02.354Z,5.63
2023-06-16T02:54:29.421Z,5.30
2023-06-16T02:56:55.986Z,5.05
2023-06-16T02:59:22.465Z,6.95
2023-06-16T03:01:48.959Z,6.45
2023-06-16T03:04:15.440Z,5.97
2023-06-16T03:06:43.253Z,5.90
2023-06-16T03:09:09.751Z,5.50
2023-06-16T03:11:36.258Z,5.80
2023-06-16T03:14:02.932Z,5.80
2023-06-16T03:16:29.468Z,6.17
2023-06-16T03:18:55.985Z,6.07
2023-06-16T03:21:22.559Z,6.07
2023-06-16T03:23:51.008Z,5.73
2023-06-16T03:26:18.564Z,5.63
2023-06-16T03:31:11.523Z,5.85
2023-06-16T03:33:38.104Z,5.60
2023-06-16T03:36:05.345Z,5.65
2023-06-16T03:38:31.934Z,5.80
2023-06-16T03:40:59.797Z,5.55
2023-06-16T03:43:26.354Z,5.63
2023-06-16T03:45:55.699Z,6.05
2023-06-16T03:48:22.706Z,5.95
2023-06-16T03:50:49.308Z,5.45
2023-06-16T03:53:17.023Z,6.50
2023-06-16T03:55:45.078Z,6.13
2023-06-16T03:58:12.951Z,5.57
2023-06-16T04:00:39.437Z,5.40
2023-06-16T04:03:06.033Z,5.90
2023-06-16T04:05:32.723Z,5.63
2023-06-16T04:07:59.251Z,6.05
2023-06-16T04:10:25.821Z,6.00
2023-06-16T04:12:52.355Z,5.32
2023-06-16T04:15:20.580Z,7.65
2023-06-16T04:17:47.129Z,6.97
2023-06-16T04:20:14.037Z,5.97
2023-06-16T04:22:40.930Z,5.97
2023-06-16T04:25:08.179Z,5.88
2023-06-16T04:27:34.669Z,6.28
2023-06-16T04:30:01.128Z,5.95
2023-06-16T04:32:29.080Z,6.35
2023-06-16T04:34:55.573Z,5.35
2023-06-16T04:37:22.043Z,5.78
2023-06-16T04:39:48.677Z,6.22
2023-06-16T04:42:15.173Z,5.60
2023-06-16T04:44:41.687Z,5.65
2023-06-16T04:47:08.236Z,6.10
2023-06-16T04:49:36.680Z,5.32
2023-06-16T04:52:03.727Z,5.57
2023-06-16T04:54:30.206Z,5.72
2023-06-16T04:56:56.782Z,5.10
2023-06-16T04:59:24.117Z,5.47
2023-06-16T05:01:50.748Z,5.72
2023-06-16T05:04:17.272Z,5.40
2023-06-16T05:06:45.119Z,5.68
2023-06-16T05:09:11.623Z,5.38
2023-06-16T05:11:38.103Z,5.90
2023-06-16T05:14:04.695Z,5.57
2023-06-16T05:16:31.257Z,4.83
2023-06-16T05:18:57.943Z,6.05
2023-06-16T05:21:24.476Z,5.60
2023-06-16T05:23:54.049Z,5.30
2023-06-16T05:26:21.109Z,5.18
2023-06-16T05:28:47.684Z,4.88
2023-06-16T05:31:14.252Z,5.50
2023-06-16T05:33:40.825Z,4.77
2023-06-16T05:36:07.408Z,5.43
2023-06-16T05:38:33.992Z,5.13
2023-06-16T05:41:01.807Z,4.72
2023-06-16T05:43:28.335Z,5.32
2023-06-16T05:45:54.881Z,4.72
2023-06-16T05:48:21.350Z,5.22
2023-06-16T05:50:47.877Z,5.38
2023-06-16T05:53:14.348Z,4.90
2023-06-16T05:55:41.351Z,4.32
2023-06-16T05:58:09.215Z,4.38
2023-06-16T06:00:35.762Z,4.47
2023-06-16T06:03:02.443Z,4.43
2023-06-16T06:05:29.156Z,4.50
2023-06-16T06:07:55.686Z,4.27
2023-06-16T06:10:25.011Z,4.38
2023-06-16T06:12:52.568Z,4.70
2023-06-16T06:15:20.523Z,4.07
2023-06-16T06:17:47.062Z,4.35
2023-06-16T06:20:13.725Z,4.33
2023-06-16T06:22:40.260Z,4.37
2023-06-16T06:25:07.261Z,4.20
2023-06-16T06:27:33.764Z,4.70
2023-06-16T06:30:00.261Z,4.90
2023-06-16T06:32:28.096Z,4.55
2023-06-16T06:34:54.552Z,4.53
2023-06-16T06:37:21.073Z,5.05
2023-06-16T06:39:47.570Z,2.70
2023-06-16T06:42:14.073Z,4.45
2023-06-16T06:44:40.553Z,4.15
2023-06-16T06:47:07.106Z,4.32
2023-06-16T06:49:34.963Z,3.80
2023-06-16T06:52:01.456Z,4.93
2023-06-16T06:54:27.956Z,4.00
2023-06-16T06:56:54.480Z,4.50
2023-06-16T06:59:21.007Z,4.10
2023-06-16T07:01:47.530Z,4.47
2023-06-16T07:04:14.220Z,3.93
2023-06-16T07:06:42.278Z,4.60
2023-06-16T07:09:12.999Z,4.78
2023-06-16T07:11:45.407Z,4.25
2023-06-16T07:14:11.875Z,4.27
2023-06-16T07:16:38.372Z,5.35
2023-06-16T07:19:04.943Z,4.10
2023-06-16T07:21:31.448Z,4.37
2023-06-16T07:23:59.365Z,4.72
2023-06-16T07:26:25.869Z,4.07
2023-06-16T07:28:52.398Z,5.07
2023-06-16T07:31:18.893Z,3.83
2023-06-16T07:33:45.381Z,4.10
2023-06-16T07:36:11.895Z,4.90
2023-06-16T07:38:38.382Z,3.83
2023-06-16T07:41:06.418Z,4.30
2023-06-16T07:43:32.891Z,4.18
2023-06-16T07:45:59.417Z,4.00
2023-06-16T07:48:26.030Z,4.17
2023-06-16T07:50:52.576Z,3.87
2023-06-16T07:53:19.042Z,4.10
2023-06-16T07:55:45.533Z,4.13
2023-06-16T07:58:13.486Z,4.72
2023-06-16T08:00:40.071Z,13.82
2023-06-16T08:03:06.621Z,3.60
2023-06-16T08:05:33.229Z,4.07
2023-06-16T08:07:59.762Z,4.43
2023-06-16T08:10:26.401Z,3.90
2023-06-16T08:12:53.094Z,3.75
2023-06-16T08:15:21.118Z,3.47
2023-06-16T08:17:47.685Z,3.35
2023-06-16T08:20:14.248Z,2.97
2023-06-16T08:22:40.745Z,3.63
2023-06-16T08:25:07.761Z,3.22
2023-06-16T08:27:34.251Z,3.17
2023-06-16T08:30:01.200Z,3.20
2023-06-16T08:32:29.064Z,3.60
2023-06-16T08:34:55.551Z,3.72
2023-06-16T08:37:30.329Z,3.30
2023-06-16T08:39:57.846Z,2.90
2023-06-16T08:42:24.420Z,3.45
2023-06-16T08:44:52.587Z,3.45
2023-06-16T08:47:19.079Z,3.35
2023-06-16T08:49:46.986Z,2.97
2023-06-16T08:52:17.144Z,3.30
2023-06-16T08:54:47.532Z,3.45
2023-06-16T08:57:15.361Z,3.42
2023-06-16T08:59:45.244Z,3.80
2023-06-16T09:02:12.374Z,3.22
2023-06-16T09:07:07.172Z,3.92
2023-06-16T09:09:33.697Z,3.42
2023-06-16T09:12:04.198Z,3.60
2023-06-16T09:14:31.224Z,3.60
2023-06-16T09:16:57.697Z,3.55
2023-06-16T09:19:24.180Z,4.00
2023-06-16T09:21:54.498Z,3.43
2023-06-16T09:24:25.844Z,3.58
2023-06-16T09:26:52.392Z,3.35
2023-06-16T09:29:24.264Z,3.10
2023-06-16T09:31:50.884Z,2.58
2023-06-16T09:34:17.590Z,4.00
2023-06-16T09:36:44.494Z,2.70
2023-06-16T09:41:52.705Z,3.10
2023-06-16T09:44:22.145Z,2.78
2023-06-16T09:46:49.380Z,3.20
2023-06-16T09:49:22.892Z,3.05
2023-06-16T09:51:53.556Z,3.05
2023-06-16T09:54:21.062Z,2.95
2023-06-16T09:56:49.807Z,2.85
2023-06-16T09:59:16.425Z,3.33
2023-06-16T10:01:44.017Z,3.33
2023-06-16T10:04:11.940Z,4.13
2023-06-16T10:06:43.941Z,2.90
2023-06-16T10:09:11.441Z,3.33
2023-06-16T10:11:40.742Z,3.13
2023-06-16T10:14:10.328Z,3.30
2023-06-16T10:16:38.250Z,3.25
2023-06-16T10:19:07.167Z,3.22
2023-06-16T10:21:33.892Z,3.08
2023-06-16T10:26:30.004Z,2.88
2023-06-16T10:28:56.775Z,3.13
2023-06-16T10:31:25.254Z,3.22
2023-06-16T10:33:53.530Z,2.67
2023-06-16T10:36:22.952Z,3.20
2023-06-16T10:38:55.680Z,2.92
2023-06-16T10:41:22.257Z,2.97
2023-06-16T10:43:48.803Z,2.72
2023-06-16T10:49:18.747Z,2.80
2023-06-16T10:51:50.670Z,3.00
2023-06-16T10:54:35.133Z,3.00
2023-06-16T10:57:12.136Z,3.05
2023-06-16T10:59:54.814Z,3.15
2023-06-16T11:02:23.221Z,3.10
2023-06-16T11:05:12.448Z,2.83
2023-06-16T11:07:40.956Z,2.90
2023-06-16T11:10:08.892Z,3.80
2023-06-16T11:12:35.868Z,3.15
2023-06-16T11:15:04.433Z,3.20
2023-06-16T11:17:32.052Z,2.75
2023-06-16T11:19:58.599Z,3.08
2023-06-16T11:24:57.226Z,2.60
2023-06-16T11:27:23.927Z,3.13
2023-06-16T11:29:50.469Z,3.53
2023-06-16T11:32:17.337Z,3.28
2023-06-16T11:34:43.923Z,3.33
2023-06-16T11:37:10.416Z,3.08
2023-06-16T11:42:13.644Z,3.03
2023-06-16T11:44:40.191Z,3.40
2023-06-16T11:49:35.091Z,3.15
2023-06-16T11:52:01.790Z,3.10
2023-06-16T11:56:58.492Z,3.38
2023-06-16T11:59:26.661Z,3.58
2023-06-16T12:01:53.166Z,3.50
2023-06-16T12:04:21.200Z,3.40
2023-06-16T12:06:48.587Z,3.45
2023-06-16T12:09:15.076Z,3.55
2023-06-16T12:14:08.047Z,3.13
2023-06-16T12:16:36.933Z,3.50
2023-06-16T12:19:03.690Z,3.30
2023-06-16T12:21:30.779Z,3.35
2023-06-16T12:23:59.622Z,3.75
2023-06-16T12:26:31.622Z,3.22
2023-06-16T12:28:59.369Z,3.03
2023-06-16T12:31:26.305Z,3.45
2023-06-16T12:33:54.415Z,2.95
2023-06-16T12:36:21.025Z,3.97
2023-06-16T12:38:48.309Z,3.47
2023-06-16T12:41:16.258Z,3.28
2023-06-16T12:43:50.020Z,3.60
2023-06-16T12:46:17.118Z,3.55
2023-06-16T12:48:43.657Z,3.58
2023-06-16T12:51:14.246Z,3.63
2023-06-16T12:53:42.643Z,3.55
2023-06-16T12:56:10.197Z,3.85
2023-06-16T12:58:37.870Z,4.10
2023-06-16T13:01:04.371Z,4.38
2023-06-16T13:03:30.986Z,3.88
2023-06-16T13:05:57.496Z,4.43
2023-06-16T13:08:25.323Z,4.13
2023-06-16T13:10:51.813Z,4.50
2023-06-16T13:13:18.451Z,4.40
2023-06-16T13:15:45.026Z,4.35
2023-06-16T13:18:11.697Z,4.25
2023-06-16T13:20:38.946Z,4.05
2023-06-16T13:23:05.690Z,3.75
2023-06-16T13:25:33.513Z,3.97
2023-06-16T13:28:00.081Z,3.70
2023-06-16T13:30:26.585Z,3.88
2023-06-16T13:32:53.123Z,3.55
2023-06-16T13:35:19.796Z,3.92
2023-06-16T13:40:13.668Z,4.03
2023-06-16T13:42:41.487Z,3.45
2023-06-16T13:45:08.857Z,3.95
2023-06-16T13:47:35.498Z,3.38
2023-06-16T13:52:29.579Z,3.85
2023-06-16T13:54:56.070Z,4.00
2023-06-16T13:57:22.598Z,3.53
2023-06-16T13:59:50.575Z,3.65
2023-06-16T14:02:17.038Z,3.72
2023-06-16T14:04:43.610Z,3.80
2023-06-16T14:07:10.076Z,3.50
2023-06-16T14:09:36.581Z,3.83
2023-06-16T14:12:03.535Z,3.70
2023-06-16T14:14:31.670Z,3.50
2023-06-16T14:16:59.955Z,4.40
2023-06-16T14:19:29.549Z,3.58
2023-06-16T14:22:01.012Z,3.40
2023-06-16T14:24:27.681Z,4.03
2023-06-16T14:26:54.206Z,3.90
2023-06-16T14:29:20.715Z,3.65
2023-06-16T14:31:47.246Z,3.63
2023-06-16T14:34:15.210Z,3.90
2023-06-16T14:36:41.735Z,3.65
2023-06-16T14:39:10.195Z,4.72
2023-06-16T14:41:37.171Z,4.50
2023-06-16T14:44:03.751Z,4.22
2023-06-16T14:46:30.358Z,3.75
2023-06-16T14:48:56.944Z,4.30
2023-06-16T14:51:24.973Z,4.60
2023-06-16T14:53:51.461Z,4.10
2023-06-16T14:56:17.992Z,4.13
2023-06-16T14:58:44.449Z,4.20
2023-06-16T15:01:10.986Z,3.58
2023-06-16T15:03:37.634Z,3.83
2023-06-16T15:06:04.488Z,4.78
2023-06-16T15:08:32.358Z,3.90
2023-06-16T15:10:58.896Z,4.47
2023-06-16T15:13:25.547Z,4.15
2023-06-16T15:15:52.149Z,4.55
2023-06-16T15:18:18.673Z,4.65
2023-06-16T15:20:45.201Z,4.28
2023-06-16T15:23:11.819Z,4.38
2023-06-16T15:25:39.636Z,4.30
2023-06-16T15:28:12.370Z,4.65
2023-06-16T15:30:39.726Z,4.85
2023-06-16T15:33:06.394Z,4.90
2023-06-16T15:35:33.079Z,4.68
2023-06-16T15:37:59.767Z,5.15
2023-06-16T15:40:26.290Z,4.43
2023-06-16T15:42:59.971Z,4.50
2023-06-16T15:45:26.451Z,4.35
2023-06-16T15:47:53.100Z,4.77
2023-06-16T15:50:19.817Z,4.03
2023-06-16T15:52:46.488Z,4.50
2023-06-16T15:55:12.989Z,3.80
2023-06-16T15:57:39.479Z,4.40
2023-06-16T16:00:08.885Z,4.03
2023-06-16T16:02:35.578Z,5.00
2023-06-16T16:05:02.241Z,4.03
2023-06-16T16:07:28.744Z,4.40
2023-06-16T16:09:55.254Z,5.93
2023-06-16T16:12:21.803Z,4.50
2023-06-16T16:14:48.334Z,4.37
2023-06-16T16:17:16.212Z,4.40
2023-06-16T16:19:42.712Z,4.07
2023-06-16T16:22:09.193Z,4.10
2023-06-16T16:24:35.782Z,4.60
2023-06-16T16:27:02.373Z,4.20
2023-06-16T16:29:28.892Z,4.28
2023-06-16T16:31:55.451Z,3.77
2023-06-16T16:34:23.295Z,4.25
2023-06-16T16:36:49.747Z,3.90
2023-06-16T16:39:16.254Z,4.40
2023-06-16T16:41:43.147Z,4.85
2023-06-16T16:44:10.035Z,4.30
2023-06-16T16:46:36.554Z,4.38
2023-06-16T16:49:03.171Z,4.80
2023-06-16T16:51:30.995Z,5.03
2023-06-16T16:53:57.481Z,5.10
2023-06-16T16:56:23.982Z,4.90
2023-06-16T16:58:50.583Z,4.60
2023-06-16T17:01:17.193Z,5.05
2023-06-16T17:03:43.762Z,4.75
2023-06-16T17:06:10.357Z,5.10
2023-06-16T17:08:38.233Z,4.60
2023-06-16T17:11:04.987Z,5.40
2023-06-16T17:13:31.796Z,4.75
2023-06-16T17:15:59.700Z,4.95
2023-06-16T17:18:26.259Z,4.53
2023-06-16T17:20:52.900Z,4.73
2023-06-16T17:23:19.473Z,4.93
2023-06-16T17:25:47.409Z,4.63
2023-06-16T17:28:13.965Z,4.93
2023-06-16T17:30:41.512Z,4.67
2023-06-16T17:33:08.110Z,4.82
2023-06-16T17:35:34.688Z,4.78
2023-06-16T17:38:01.191Z,4.93
2023-06-16T17:40:31.762Z,5.60
2023-06-16T17:42:59.922Z,4.90
2023-06-16T17:45:26.448Z,4.80
2023-06-16T17:47:53.090Z,5.57
2023-06-16T17:50:19.893Z,4.43
2023-06-16T17:52:46.705Z,4.82
2023-06-16T17:55:13.285Z,5.47
2023-06-16T17:57:39.837Z,5.07
2023-06-16T18:00:09.589Z,4.77
2023-06-16T18:02:36.236Z,5.18
2023-06-16T18:05:02.926Z,5.25
2023-06-16T18:07:29.529Z,4.67
2023-06-16T18:09:56.092Z,4.53
2023-06-16T18:12:22.899Z,4.60
2023-06-16T18:14:49.568Z,4.78
2023-06-16T18:17:17.420Z,5.20
2023-06-16T18:19:43.918Z,4.97
2023-06-16T18:22:10.469Z,5.43
2023-06-16T18:24:37.102Z,3.87
2023-06-16T18:27:04.256Z,5.47
2023-06-16T18:29:30.772Z,4.55
2023-06-16T18:31:57.233Z,5.07
2023-06-16T18:34:26.458Z,4.38
2023-06-16T18:36:53.005Z,4.55
2023-06-16T18:39:20.631Z,4.87
2023-06-16T18:41:48.970Z,4.45
2023-06-16T18:44:15.792Z,4.60
2023-06-16T18:46:42.578Z,4.55
2023-06-16T18:49:09.235Z,5.30
2023-06-16T18:51:37.656Z,4.68
2023-06-16T18:54:04.737Z,5.07
2023-06-16T18:56:33.377Z,5.28
2023-06-16T18:59:01.432Z,4.63
2023-06-16T19:01:27.980Z,4.30
2023-06-16T19:03:54.779Z,4.80
2023-06-16T19:06:21.621Z,5.32
2023-06-16T19:08:50.357Z,5.47
2023-06-16T19:11:17.792Z,4.25
2023-06-16T19:16:10.773Z,5.18
2023-06-16T19:18:37.355Z,5.23
2023-06-16T19:21:04.108Z,4.63
2023-06-16T19:23:30.586Z,5.20
2023-06-16T19:25:58.588Z,5.22
2023-06-16T19:28:25.149Z,4.80
2023-06-16T19:30:51.720Z,5.63
2023-06-16T19:33:18.350Z,5.83
2023-06-16T19:35:45.017Z,5.18
2023-06-16T19:38:11.520Z,5.10
2023-06-16T19:40:38.060Z,6.18
2023-06-16T19:43:05.950Z,5.50
2023-06-16T19:45:32.445Z,6.10
2023-06-16T19:47:59.112Z,3.55
2023-06-16T19:50:25.660Z,5.60
2023-06-16T19:52:52.185Z,3.53
2023-06-16T19:55:18.650Z,5.38
2023-06-16T19:57:45.214Z,5.65
2023-06-16T20:00:13.612Z,4.93
2023-06-16T20:02:40.299Z,4.70
2023-06-16T20:05:07.682Z,4.97
2023-06-16T20:07:34.171Z,5.30
2023-06-16T20:10:00.689Z,4.80
2023-06-16T20:12:27.181Z,4.30
2023-06-16T20:14:53.702Z,3.17
2023-06-16T20:17:21.640Z,4.38
2023-06-16T20:19:48.273Z,4.93
2023-06-16T20:22:14.748Z,5.18
2023-06-16T20:24:41.248Z,5.70
2023-06-16T20:27:07.869Z,5.72
2023-06-16T20:29:34.342Z,4.77
2023-06-16T20:32:00.902Z,5.38
2023-06-16T20:34:28.735Z,5.07
2023-06-16T20:36:55.208Z,5.18
2023-06-16T20:39:22.337Z,5.45
2023-06-16T20:41:48.871Z,4.60
2023-06-16T20:44:15.408Z,5.57
2023-06-16T20:46:41.968Z,3.92
2023-06-16T20:49:08.459Z,6.57
2023-06-16T20:51:36.313Z,4.13
2023-06-16T20:54:03.248Z,6.68
2023-06-16T20:56:29.772Z,7.25
2023-06-16T20:58:56.250Z,7.07
2023-06-16T21:01:22.765Z,5.78
2023-06-16T21:03:49.747Z,5.72
2023-06-16T21:06:16.449Z,5.28
2023-06-16T21:08:44.280Z,5.80
2023-06-16T21:11:10.830Z,5.40
2023-06-16T21:13:37.336Z,5.57
2023-06-16T21:16:04.225Z,5.00
2023-06-16T21:18:31.650Z,5.28
2023-06-16T21:23:25.042Z,6.15
2023-06-16T21:25:52.965Z,4.80
2023-06-16T21:28:19.534Z,5.88
2023-06-16T21:30:46.128Z,4.80
2023-06-16T21:33:12.705Z,5.60
2023-06-16T21:35:39.659Z,5.57
2023-06-16T21:38:06.431Z,5.50
2023-06-16T21:40:33.717Z,5.40
2023-06-16T21:43:01.590Z,5.80
2023-06-16T21:45:28.101Z,5.70
2023-06-16T21:47:54.735Z,6.20
2023-06-16T21:50:21.779Z,5.67
2023-06-16T21:52:48.559Z,5.60
2023-06-16T21:55:15.059Z,6.00
2023-06-16T21:57:41.511Z,5.75
2023-06-16T22:00:10.876Z,5.90
2023-06-16T22:02:37.455Z,5.63
2023-06-16T22:05:04.476Z,6.50
2023-06-16T22:07:30.946Z,6.10
2023-06-16T22:09:57.599Z,5.25
2023-06-16T22:12:24.131Z,5.70
2023-06-16T22:14:50.848Z,5.90
2023-06-16T22:17:18.784Z,6.53
2023-06-16T22:19:45.551Z,5.45
2023-06-16T22:22:12.711Z,5.82
2023-06-16T22:24:40.442Z,5.40
2023-06-16T22:27:19.869Z,6.15
2023-06-16T22:29:48.174Z,5.93
2023-06-16T22:32:14.967Z,6.18
2023-06-16T22:34:42.951Z,6.00
2023-06-16T22:37:12.068Z,5.85
2023-06-16T22:39:40.767Z,5.88
2023-06-16T22:42:07.614Z,5.40
2023-06-16T22:44:34.450Z,6.32
2023-06-16T22:47:00.950Z,6.10
2023-06-16T22:49:27.428Z,5.72
2023-06-16T22:51:55.687Z,5.50
2023-06-16T22:54:22.134Z,6.30
2023-06-16T22:56:48.689Z,6.28
2023-06-16T22:59:15.596Z,6.45
2023-06-16T23:01:42.137Z,6.28
2023-06-16T23:04:09.076Z,6.22
2023-06-16T23:06:36.232Z,5.45
2023-06-16T23:09:04.801Z,5.78
2023-06-16T23:11:31.295Z,5.60
2023-06-16T23:13:57.885Z,5.05
2023-06-16T23:16:24.763Z,6.00
2023-06-16T23:18:51.574Z,5.72
2023-06-16T23:21:18.062Z,5.93
2023-06-16T23:23:44.553Z,5.70
2023-06-16T23:26:12.644Z,5.70
2023-06-16T23:28:39.133Z,5.55
2023-06-16T23:31:05.717Z,5.45
2023-06-16T23:33:32.473Z,5.57
2023-06-16T23:35:58.985Z,5.70
2023-06-16T23:38:25.514Z,5.53
2023-06-16T23:40:52.074Z,6.32
2023-06-16T23:43:20.044Z,5.35
2023-06-16T23:45:46.559Z,5.78
2023-06-16T23:48:13.209Z,5.38
2023-06-16T23:50:40.668Z,6.00
2023-06-16T23:53:07.249Z,6.03
2023-06-16T23:55:33.782Z,5.82
2023-06-16T23:58:00.296Z,6.15
